Time;durP1;ratioP1;P1;durP2;ratioP2;P2;SDS_P1;SDS_P2;PMS_P1;PMS_P2;Temp;Humidity;BMP_temperature;BMP_pressure;BME280_temperature;BME280_humidity;BME280_pressure;Samples;Min_cycle;Max_cycle;Signal;HPM_P1;HPM_P2
2023/08/26 00:01:38;;;;;;;;;;;;;;;16.96;100.00;100842.63;5013955;28;1979;-77
2023/08/26 00:04:04;;;;;;;;;;;;;;;16.95;100.00;100848.84;5017403;28;1175;-78
2023/08/26 00:06:29;;;;;;;;;;;;;;;16.94;100.00;100847.22;5027585;28;1247;-77
2023/08/26 00:08:54;;;;;;;;;;;;;;;16.94;100.00;100847.22;5034798;28;1220;-77
2023/08/26 00:11:19;;;;;;;;;;;;;;;16.92;100.00;100854.44;5008830;28;1470;-76
2023/08/26 00:13:45;;;;;;;;;;;;;;;16.92;100.00;100848.38;5013029;28;1332;-77
2023/08/26 00:16:12;;;;;;;;;;;;;;;16.90;100.00;100851.16;5033274;28;1523;-77
2023/08/26 00:18:37;;;;;;;;;;;;;;;16.87;100.00;100835.78;5019227;28;1260;-77
2023/08/26 00:21:03;;;;;;;;;;;;;;;16.86;100.00;100830.69;5026047;28;2192;-77
2023/08/26 00:23:28;;;;;;;;;;;;;;;16.84;100.00;100830.84;5037380;28;1170;-78
2023/08/26 00:25:54;;;;;;;;;;;;;;;16.83;100.00;100834.47;5009187;28;1182;-78
2023/08/26 00:28:19;;;;;;;;;;;;;;;16.79;100.00;100827.91;5030042;28;1196;-77
2023/08/26 00:30:44;;;;;;;;;;;;;;;16.76;100.00;100827.44;5014971;28;1217;-77
2023/08/26 00:33:09;;;;;;;;;;;;;;;16.80;100.00;100819.06;5026655;28;1090;-78
2023/08/26 00:35:36;;;;;;;;;;;;;;;16.81;100.00;100836.44;5020087;28;1082;-77
2023/08/26 00:38:01;;;;;;;;;;;;;;;16.82;100.00;100838.06;5026066;28;1164;-77
2023/08/26 00:40:27;;;;;;;;;;;;;;;16.82;100.00;100839.88;5027053;28;1902;-77
2023/08/26 00:42:53;;;;;;;;;;;;;;;16.80;100.00;100837.41;5010290;28;1201;-78
2023/08/26 00:45:18;;;;;;;;;;;;;;;16.80;100.00;100840.03;5027369;28;1346;-77
2023/08/26 00:47:43;;;;;;;;;;;;;;;16.80;100.00;100840.03;5031315;28;983;-78
2023/08/26 00:50:09;;;;;;;;;;;;;;;16.76;100.00;100843.97;5042994;28;1023;-78
2023/08/26 00:52:34;;;;;;;;;;;;;;;16.75;100.00;100836.28;5017849;28;1446;-77
2023/08/26 00:54:59;;;;;;;;;;;;;;;16.73;100.00;100836.44;5041493;28;1330;-77
2023/08/26 00:57:24;;;;;;;;;;;;;;;16.72;100.00;100837.41;5042645;28;1077;-78
2023/08/26 00:59:50;;;;;;;;;;;;;;;16.69;100.00;100843.78;5041077;28;1078;-78
2023/08/26 01:02:15;;;;;;;;;;;;;;;16.65;100.00;100839.03;5015661;28;1894;-77
2023/08/26 01:04:40;;;;;;;;;;;;;;;16.64;100.00;100845.25;5034563;28;990;-78
2023/08/26 01:07:05;;;;;;;;;;;;;;;16.64;100.00;100840.03;5032730;28;1351;-78
2023/08/26 01:09:31;;;;;;;;;;;;;;;16.63;100.00;100843.59;5027992;28;1367;-78
2023/08/26 01:12:00;;;;;;;;;;;;;;;16.60;100.00;100842.16;5031476;28;1095;-77
2023/08/26 01:14:34;;;;;;;;;;;;;;;16.55;100.00;100838.38;5031876;28;1182;-78
2023/08/26 01:17:01;;;;;;;;;;;;;;;16.44;100.00;100835.09;5031230;28;1112;-77
2023/08/26 01:19:26;;;;;;;;;;;;;;;16.34;100.00;100834.44;5031689;28;1133;-78
2023/08/26 01:21:56;;;;;;;;;;;;;;;16.28;100.00;100835.06;5023152;28;1977;-78
2023/08/26 01:24:22;;;;;;;;;;;;;;;16.20;100.00;100830.66;5036212;28;1248;-80
2023/08/26 01:26:47;;;;;;;;;;;;;;;16.13;100.00;100837.53;5031736;28;1109;-77
2023/08/26 01:29:12;;;;;;;;;;;;;;;16.08;100.00;100839.00;5008373;28;1306;-78
2023/08/26 01:31:38;;;;;;;;;;;;;;;16.04;100.00;100848.13;5032517;28;1138;-78
2023/08/26 01:34:10;;;;;;;;;;;;;;;16.02;100.00;100839.63;5015794;28;2230;-77
2023/08/26 01:36:40;;;;;;;;;;;;;;;15.99;100.00;100845.16;5009573;28;1268;-78
2023/08/26 01:39:05;;;;;;;;;;;;;;;15.94;100.00;100843.03;5028851;28;2086;-77
2023/08/26 01:41:30;;;;;;;;;;;;;;;15.91;99.52;100852.03;5030372;28;1906;-78
2023/08/26 01:43:57;;;;;;;;;;;;;;;15.89;100.00;100851.38;5030017;28;1266;-77
2023/08/26 01:46:33;;;;;;;;;;;;;;;15.84;100.00;100840.56;5005953;28;1509;-78
2023/08/26 01:48:58;;;;;;;;;;;;;;;15.83;100.00;100852.00;5024952;28;1125;-81
2023/08/26 01:51:23;;;;;;;;;;;;;;;15.77;100.00;100841.34;5026324;28;1880;-78
2023/08/26 01:53:48;;;;;;;;;;;;;;;15.71;100.00;100848.03;5034547;28;1118;-79
2023/08/26 01:56:14;;;;;;;;;;;;;;;15.67;100.00;100849.34;5033523;28;1369;-79
2023/08/26 01:58:39;;;;;;;;;;;;;;;15.60;100.00;100856.16;5027873;28;1108;-79
2023/08/26 02:01:05;;;;;;;;;;;;;;;15.54;100.00;100857.59;5043597;28;1959;-80
2023/08/26 02:03:30;;;;;;;;;;;;;;;15.49;100.00;100846.78;5044321;28;1482;-78
2023/08/26 02:05:56;;;;;;;;;;;;;;;15.45;99.96;100852.47;5038008;28;1220;-81
2023/08/26 02:08:21;;;;;;;;;;;;;;;15.42;100.00;100858.81;5012654;28;1442;-77
2023/08/26 02:10:52;;;;;;;;;;;;;;;15.40;100.00;100853.75;5027732;28;1192;-79
2023/08/26 02:13:17;;;;;;;;;;;;;;;15.34;99.35;100851.75;5037077;28;1123;-81
2023/08/26 02:15:43;;;;;;;;;;;;;;;15.32;99.36;100861.56;5023725;28;1202;-76
2023/08/26 02:18:08;;;;;;;;;;;;;;;15.26;99.31;100856.94;5033252;28;1240;-80
2023/08/26 02:20:33;;;;;;;;;;;;;;;15.24;99.75;100851.03;5014619;28;1948;-78
2023/08/26 02:22:58;;;;;;;;;;;;;;;15.21;99.79;100856.59;5025760;28;1263;-80
2023/08/26 02:25:23;;;;;;;;;;;;;;;15.15;99.03;100851.97;5015742;28;1204;-80
2023/08/26 02:27:49;;;;;;;;;;;;;;;15.10;99.21;100859.47;5027106;28;1318;-79
2023/08/26 02:30:14;;;;;;;;;;;;;;;15.07;99.23;100851.91;5032627;28;1043;-77
2023/08/26 02:32:39;;;;;;;;;;;;;;;15.05;99.10;100848.66;5011431;28;1210;-79
2023/08/26 02:35:04;;;;;;;;;;;;;;;15.01;99.07;100849.91;5032769;28;1333;-79
2023/08/26 02:37:30;;;;;;;;;;;;;;;14.94;98.84;100859.34;5031434;28;1156;-76
2023/08/26 02:39:55;;;;;;;;;;;;;;;14.90;98.90;100858.00;5029866;28;1150;-79
2023/08/26 02:42:20;;;;;;;;;;;;;;;14.85;98.52;100851.47;5032351;28;1898;-79
2023/08/26 02:44:45;;;;;;;;;;;;;;;14.83;99.14;100848.16;5030256;28;1242;-81
2023/08/26 02:47:11;;;;;;;;;;;;;;;14.76;98.52;100852.38;5020467;28;1204;-80
2023/08/26 02:49:36;;;;;;;;;;;;;;;14.71;99.18;100848.56;5026595;28;1127;-80
2023/08/26 02:52:01;;;;;;;;;;;;;;;14.65;98.58;100844.78;5029653;28;1117;-78
2023/08/26 02:54:26;;;;;;;;;;;;;;;14.65;99.09;100844.78;5022954;28;1152;-80
2023/08/26 02:56:51;;;;;;;;;;;;;;;14.59;99.00;100851.41;5020507;28;1090;-79
2023/08/26 02:59:17;;;;;;;;;;;;;;;14.54;99.09;100847.63;5009264;28;1323;-79
2023/08/26 03:01:43;;;;;;;;;;;;;;;14.50;99.13;100852.31;5028039;28;1976;-80
2023/08/26 03:04:08;;;;;;;;;;;;;;;14.45;99.15;100854.53;5040092;28;1089;-79
2023/08/26 03:06:33;;;;;;;;;;;;;;;14.41;98.92;100849.75;5020503;28;1540;-79
2023/08/26 03:08:59;;;;;;;;;;;;;;;14.36;99.21;100850.19;5020318;28;1376;-80
2023/08/26 03:11:24;;;;;;;;;;;;;;;14.32;99.44;100852.28;5037592;28;1434;-80
2023/08/26 03:13:49;;;;;;;;;;;;;;;14.24;99.21;100856.59;5034961;28;1328;-80
2023/08/26 03:16:14;;;;;;;;;;;;;;;14.20;99.17;100853.47;5032242;28;1260;-79
2023/08/26 03:18:40;;;;;;;;;;;;;;;14.16;99.56;100853.91;5031993;28;1442;-78
2023/08/26 03:21:05;;;;;;;;;;;;;;;14.12;99.18;100858.63;5012787;28;1957;-80
2023/08/26 03:23:31;;;;;;;;;;;;;;;14.08;99.52;100862.47;5032570;28;1055;-79
2023/08/26 03:25:56;;;;;;;;;;;;;;;14.05;99.19;100868.81;5022780;28;1213;-79
2023/08/26 03:28:21;;;;;;;;;;;;;;;14.03;99.21;100859.47;5016984;28;1546;-80
2023/08/26 03:30:46;;;;;;;;;;;;;;;14.05;99.27;100868.81;5024819;28;1172;-79
2023/08/26 03:33:12;;;;;;;;;;;;;;;14.07;99.41;100866.06;5023964;28;1194;-80
2023/08/26 03:35:40;;;;;;;;;;;;;;;14.02;99.24;100871.69;5031386;28;1138;-78
2023/08/26 03:38:05;;;;;;;;;;;;;;;13.96;99.17;100866.25;5027054;28;1214;-80
2023/08/26 03:40:30;;;;;;;;;;;;;;;13.93;99.22;100863.94;5005470;28;1948;-79
2023/08/26 03:42:55;;;;;;;;;;;;;;;13.89;99.32;100870.41;5008723;28;1227;-79
2023/08/26 03:45:21;;;;;;;;;;;;;;;13.84;99.17;100875.25;5003682;28;1382;-78
2023/08/26 03:47:46;;;;;;;;;;;;;;;13.76;99.12;100868.13;5021217;28;1213;-80
2023/08/26 03:50:11;;;;;;;;;;;;;;;13.70;99.28;100869.53;5021592;28;1133;-79
2023/08/26 03:52:36;;;;;;;;;;;;;;;13.66;99.29;100865.59;5028649;28;1187;-78
2023/08/26 03:55:02;;;;;;;;;;;;;;;13.64;99.66;100875.31;5031066;28;1257;-81
2023/08/26 03:57:27;;;;;;;;;;;;;;;13.61;99.39;100875.63;5024807;28;1126;-79
2023/08/26 03:59:53;;;;;;;;;;;;;;;13.61;99.75;100873.00;5021494;28;1209;-80
2023/08/26 04:02:18;;;;;;;;;;;;;;;13.64;99.43;100875.31;5032123;28;1898;-79
2023/08/26 04:04:43;;;;;;;;;;;;;;;13.61;99.33;100870.41;5027685;28;1134;-80
2023/08/26 04:07:08;;;;;;;;;;;;;;;13.60;99.35;100871.38;5032693;28;1121;-80
2023/08/26 04:09:33;;;;;;;;;;;;;;;13.56;99.03;100870.00;5033640;28;1197;-78
2023/08/26 04:11:59;;;;;;;;;;;;;;;13.50;99.37;100874.00;5036073;28;1143;-77
2023/08/26 04:14:24;;;;;;;;;;;;;;;13.46;99.41;100872.66;5028085;28;1359;-79
2023/08/26 04:16:49;;;;;;;;;;;;;;;13.42;99.38;100876.53;5034304;28;1205;-78
2023/08/26 04:19:15;;;;;;;;;;;;;;;13.36;99.64;100871.88;5033074;28;1204;-77
2023/08/26 04:21:40;;;;;;;;;;;;;;;13.35;99.94;100870.22;5037017;28;1989;-77
2023/08/26 04:24:05;;;;;;;;;;;;;;;13.34;99.88;100878.19;5034076;28;1097;-79
2023/08/26 04:26:31;;;;;;;;;;;;;;;13.32;99.80;100888.75;5040491;28;1194;-76
2023/08/26 04:28:56;;;;;;;;;;;;;;;13.30;99.63;100888.03;5032471;28;1238;-79
2023/08/26 04:31:22;;;;;;;;;;;;;;;13.26;99.59;100897.94;5036363;28;1070;-78
2023/08/26 04:33:47;;;;;;;;;;;;;;;13.22;99.74;100891.38;5030818;28;1371;-79
2023/08/26 04:36:13;;;;;;;;;;;;;;;13.22;99.77;100896.56;5027810;28;1441;-79
2023/08/26 04:38:38;;;;;;;;;;;;;;;13.20;99.69;100901.09;5039986;28;1160;-79
2023/08/26 04:41:03;;;;;;;;;;;;;;;13.17;99.80;100905.75;5030363;28;1971;-77
2023/08/26 04:43:28;;;;;;;;;;;;;;;13.15;99.81;100908.50;5037549;28;983;-80
2023/08/26 04:45:55;;;;;;;;;;;;;;;13.17;99.82;100911.75;5009931;28;1356;-80
2023/08/26 04:48:20;;;;;;;;;;;;;;;13.17;100.00;100910.94;5031761;28;1239;-80
2023/08/26 04:50:45;;;;;;;;;;;;;;;13.19;99.95;100914.22;5016428;28;1312;-79
2023/08/26 04:53:10;;;;;;;;;;;;;;;13.16;99.78;100917.94;5014850;28;1007;-79
2023/08/26 04:55:36;;;;;;;;;;;;;;;13.09;99.79;100906.44;5033076;28;1006;-79
2023/08/26 04:58:01;;;;;;;;;;;;;;;13.10;99.95;100925.50;5012450;28;1146;-80
2023/08/26 05:00:27;;;;;;;;;;;;;;;13.06;100.00;100922.34;5027666;28;1953;-80
2023/08/26 05:02:52;;;;;;;;;;;;;;;13.04;99.90;100919.06;5024743;28;1068;-80
2023/08/26 05:05:18;;;;;;;;;;;;;;;13.05;100.00;100925.91;5025621;28;1468;-78
2023/08/26 05:07:43;;;;;;;;;;;;;;;13.05;99.85;100931.09;5028235;28;1098;-79
2023/08/26 05:10:08;;;;;;;;;;;;;;;13.02;99.84;100941.81;5031109;28;1318;-80
2023/08/26 05:12:33;;;;;;;;;;;;;;;13.00;100.00;100938.50;5025216;28;1297;-79
2023/08/26 05:14:59;;;;;;;;;;;;;;;13.00;100.00;100934.13;5030623;28;1467;-79
2023/08/26 05:17:24;;;;;;;;;;;;;;;12.99;100.00;100942.91;5025880;28;1220;-78
2023/08/26 05:19:50;;;;;;;;;;;;;;;13.00;100.00;100948.91;5031833;28;1174;-80
2023/08/26 05:22:15;;;;;;;;;;;;;;;13.01;100.00;100945.34;5033799;28;1898;-79
2023/08/26 05:24:40;;;;;;;;;;;;;;;13.00;100.00;100943.72;5037567;28;1407;-80
2023/08/26 05:27:05;;;;;;;;;;;;;;;12.97;100.00;100949.22;5023232;28;1109;-79
2023/08/26 05:29:31;;;;;;;;;;;;;;;12.96;100.00;100942.34;5024637;28;1334;-80
2023/08/26 05:31:56;;;;;;;;;;;;;;;12.99;100.00;100942.06;5011901;28;1198;-80
2023/08/26 05:34:21;;;;;;;;;;;;;;;13.01;100.00;100951.38;5037180;28;1134;-80
2023/08/26 05:36:46;;;;;;;;;;;;;;;13.02;100.00;100941.81;5036854;28;1426;-80
2023/08/26 05:39:12;;;;;;;;;;;;;;;13.00;100.00;100943.72;5035361;28;1250;-79
2023/08/26 05:41:37;;;;;;;;;;;;;;;13.03;100.00;100952.09;5033621;28;1898;-79
2023/08/26 05:44:02;;;;;;;;;;;;;;;13.05;100.00;100945.91;5026437;28;1166;-80
2023/08/26 05:46:27;;;;;;;;;;;;;;;13.02;100.00;100947.03;5031137;28;1092;-81
2023/08/26 05:48:53;;;;;;;;;;;;;;;13.01;100.00;100955.78;5032696;28;1405;-78
2023/08/26 05:51:18;;;;;;;;;;;;;;;13.05;100.00;100951.94;5028818;28;1711;-80
2023/08/26 05:53:43;;;;;;;;;;;;;;;13.08;100.00;100956.88;5027325;28;1210;-80
2023/08/26 05:56:08;;;;;;;;;;;;;;;13.10;100.00;100944.53;5024056;28;1491;-79
2023/08/26 05:58:34;;;;;;;;;;;;;;;13.13;100.00;100949.50;5028717;28;1157;-81
2023/08/26 06:00:59;;;;;;;;;;;;;;;13.15;100.00;100947.56;5029495;28;1893;-80
2023/08/26 06:03:24;;;;;;;;;;;;;;;13.17;100.00;100939.59;5031388;28;1267;-80
2023/08/26 06:05:49;;;;;;;;;;;;;;;13.19;100.00;100941.13;5012034;28;1187;-80
2023/08/26 06:08:15;;;;;;;;;;;;;;;13.22;100.00;100938.25;5011533;28;1488;-80
2023/08/26 06:10:40;;;;;;;;;;;;;;;13.26;100.00;100939.63;5032490;28;1189;-77
2023/08/26 06:13:05;;;;;;;;;;;;;;;13.29;100.00;100938.50;5026238;28;1247;-79
2023/08/26 06:15:30;;;;;;;;;;;;;;;13.32;100.00;100933.03;5020080;28;1189;-79
2023/08/26 06:17:55;;;;;;;;;;;;;;;13.40;100.00;100929.72;5025164;28;1625;-80
2023/08/26 06:20:22;;;;;;;;;;;;;;;13.45;100.00;100932.72;5017771;28;1270;-81
2023/08/26 06:22:47;;;;;;;;;;;;;;;13.50;100.00;100931.34;5010395;28;1981;-80
2023/08/26 06:25:12;;;;;;;;;;;;;;;13.55;100.00;100933.53;5011689;28;1170;-80
2023/08/26 06:27:38;;;;;;;;;;;;;;;13.58;100.00;100930.63;5031318;28;1190;-80
2023/08/26 06:30:03;;;;;;;;;;;;;;;13.65;100.00;100934.31;5036958;28;1041;-81
2023/08/26 06:32:29;;;;;;;;;;;;;;;13.73;100.00;100939.63;5018917;28;1159;-82
2023/08/26 06:34:54;;;;;;;;;;;;;;;13.79;100.00;100941.66;5039955;28;1319;-81
2023/08/26 06:37:20;;;;;;;;;;;;;;;13.84;100.00;100943.03;5026501;28;1164;-81
2023/08/26 06:39:45;;;;;;;;;;;;;;;13.91;99.67;100934.47;5031987;28;1270;-82
2023/08/26 06:42:11;;;;;;;;;;;;;;;13.95;99.40;100940.25;5034842;28;1977;-82
2023/08/26 06:44:36;;;;;;;;;;;;;;;14.02;99.27;100934.28;5013501;28;1441;-81
2023/08/26 06:47:01;;;;;;;;;;;;;;;14.01;99.28;100934.44;5033863;28;1160;-80
2023/08/26 06:49:26;;;;;;;;;;;;;;;14.05;99.28;100930.59;5034361;28;1259;-83
2023/08/26 06:51:51;;;;;;;;;;;;;;;14.11;99.22;100930.00;5033972;28;1146;-82
2023/08/26 06:54:16;;;;;;;;;;;;;;;14.15;99.25;100928.72;5028474;28;1136;-82
2023/08/26 06:56:42;;;;;;;;;;;;;;;14.22;98.90;100937.63;5030840;28;939;-83
2023/08/26 06:59:07;;;;;;;;;;;;;;;14.30;99.02;100935.09;5025820;28;1174;-80
2023/08/26 07:01:34;;;;;;;;;;;;;;;14.37;98.98;100918.84;5028051;28;2308;-79
2023/08/26 07:04:03;;;;;;;;;;;;;;;14.44;98.59;100927.72;5034487;28;955;-77
2023/08/26 07:06:28;;;;;;;;;;;;;;;14.48;98.66;100931.72;5025088;28;1381;-78
2023/08/26 07:08:54;;;;;;;;;;;;;;;14.54;98.21;100931.13;5023737;28;1262;-79
2023/08/26 07:11:19;;;;;;;;;;;;;;;14.57;98.24;100920.41;5027647;28;1213;-80
2023/08/26 07:13:44;;;;;;;;;;;;;;;14.61;97.71;100919.94;5030037;28;1149;-78
2023/08/26 07:16:09;;;;;;;;;;;;;;;14.66;97.85;100924.72;5010564;28;1664;-80
2023/08/26 07:18:34;;;;;;;;;;;;;;;14.71;97.61;100924.28;5022081;28;1014;-80
2023/08/26 07:21:00;;;;;;;;;;;;;;;14.79;97.82;100930.38;5025678;28;1898;-80
2023/08/26 07:23:25;;;;;;;;;;;;;;;14.85;97.59;100929.81;5030347;28;1286;-78
2023/08/26 07:25:50;;;;;;;;;;;;;;;14.94;97.41;100942.91;5025308;28;1659;-79
2023/08/26 07:28:15;;;;;;;;;;;;;;;15.03;97.12;100944.63;5024493;28;1101;-78
2023/08/26 07:30:40;;;;;;;;;;;;;;;15.15;97.02;100946.03;5029124;28;1272;-78
2023/08/26 07:33:05;;;;;;;;;;;;;;;15.27;96.51;100950.03;5011913;28;1487;-78
2023/08/26 07:35:31;;;;;;;;;;;;;;;15.33;96.94;100946.81;5038003;28;1110;-77
2023/08/26 07:37:56;;;;;;;;;;;;;;;15.38;96.33;100960.25;5012036;28;1468;-78
2023/08/26 07:40:21;;;;;;;;;;;;;;;15.45;96.49;100957.03;5020766;28;1143;-80
2023/08/26 07:42:46;;;;;;;;;;;;;;;15.50;96.27;100965.22;5031402;28;1965;-79
2023/08/26 07:45:11;;;;;;;;;;;;;;;15.56;96.10;100969.84;5026110;28;1299;-79
2023/08/26 07:47:37;;;;;;;;;;;;;;;15.59;95.62;100974.75;5035306;28;1212;-77
2023/08/26 07:50:02;;;;;;;;;;;;;;;15.59;95.80;100974.75;5017964;28;1381;-78
2023/08/26 07:52:27;;;;;;;;;;;;;;;15.62;95.71;100975.28;5034260;28;1496;-80
2023/08/26 07:54:52;;;;;;;;;;;;;;;15.65;95.55;100974.16;5022557;28;1278;-80
2023/08/26 07:57:18;;;;;;;;;;;;;;;15.75;95.14;100972.25;5031414;28;1138;-79
2023/08/26 07:59:43;;;;;;;;;;;;;;;15.85;94.75;100975.59;5036593;28;1193;-80
2023/08/26 08:02:08;;;;;;;;;;;;;;;15.91;94.82;100980.19;5024830;28;1893;-80
2023/08/26 08:04:33;;;;;;;;;;;;;;;15.99;95.02;100965.50;5011269;28;1193;-81
2023/08/26 08:06:59;;;;;;;;;;;;;;;16.05;94.33;100970.09;5030412;28;1114;-80
2023/08/26 08:09:24;;;;;;;;;;;;;;;16.11;94.42;100974.72;5023290;28;1156;-78
2023/08/26 08:11:49;;;;;;;;;;;;;;;16.15;93.96;100976.03;5037775;28;1162;-79
2023/08/26 08:14:14;;;;;;;;;;;;;;;16.26;92.67;100973.16;5024942;28;1284;-80
2023/08/26 08:16:39;;;;;;;;;;;;;;;16.26;93.02;100970.53;5029025;28;1363;-82
2023/08/26 08:19:05;;;;;;;;;;;;;;;16.32;93.12;100963.84;5027587;28;1495;-81
2023/08/26 08:21:30;;;;;;;;;;;;;;;16.43;92.50;100972.22;5024326;28;1973;-80
2023/08/26 08:23:55;;;;;;;;;;;;;;;16.51;92.04;100975.81;5032110;28;1134;-81
2023/08/26 08:26:20;;;;;;;;;;;;;;;16.56;92.38;100968.31;5023479;28;1099;-80
2023/08/26 08:28:45;;;;;;;;;;;;;;;16.64;91.71;100970.97;5034041;28;1289;-81
2023/08/26 08:31:11;;;;;;;;;;;;;;;16.73;91.89;100970.00;5030440;28;1202;-79
2023/08/26 08:33:37;;;;;;;;;;;;;;;16.84;91.55;100972.31;5028704;28;1130;-81
2023/08/26 08:36:03;;;;;;;;;;;;;;;16.96;90.91;100971.00;5035950;28;1110;-82
2023/08/26 08:38:28;;;;;;;;;;;;;;;16.99;91.05;100960.22;5019951;28;1427;-81
2023/08/26 08:40:54;;;;;;;;;;;;;;;17.09;90.69;100960.06;5025748;28;1957;-81
2023/08/26 08:43:20;;;;;;;;;;;;;;;17.21;90.36;100968.41;5015662;28;1481;-80
2023/08/26 08:45:46;;;;;;;;;;;;;;;17.29;90.34;100962.34;5038883;28;1072;-81
2023/08/26 08:48:11;;;;;;;;;;;;;;;17.37;89.38;100968.38;5037044;28;1010;-81
2023/08/26 08:50:36;;;;;;;;;;;;;;;17.43;89.57;100957.25;5019474;28;1365;-81
2023/08/26 08:53:02;;;;;;;;;;;;;;;17.46;89.70;100964.75;5030336;28;1260;-82
2023/08/26 08:55:28;;;;;;;;;;;;;;;17.60;89.14;100962.44;5024310;28;1189;-81
2023/08/26 08:57:55;;;;;;;;;;;;;;;17.63;88.97;100957.69;5016542;28;1200;-80
2023/08/26 09:00:23;;;;;;;;;;;;;;;17.73;88.77;100958.34;5032110;28;1189;-81
2023/08/26 09:02:49;;;;;;;;;;;;;;;17.82;88.42;100961.75;5010037;28;1962;-80
2023/08/26 09:05:14;;;;;;;;;;;;;;;17.83;87.42;100973.06;5032490;28;1145;-81
2023/08/26 09:07:40;;;;;;;;;;;;;;;17.81;87.55;100981.09;5032964;28;1110;-81
2023/08/26 09:10:05;;;;;;;;;;;;;;;17.91;87.67;100970.44;5012179;28;1200;-80
2023/08/26 09:12:31;;;;;;;;;;;;;;;17.97;86.43;100975.00;5029780;28;1060;-80
2023/08/26 09:14:56;;;;;;;;;;;;;;;17.95;85.99;100983.06;5032458;28;1233;-79
2023/08/26 09:17:21;;;;;;;;;;;;;;;17.92;86.46;100983.38;5005414;28;1287;-81
2023/08/26 09:19:53;;;;;;;;;;;;;;;17.90;86.38;100980.09;5030185;28;1387;-81
2023/08/26 09:22:19;;;;;;;;;;;;;;;17.88;86.07;100982.06;5023060;28;1953;-80
2023/08/26 09:24:45;;;;;;;;;;;;;;;17.88;85.98;100984.69;5015712;28;1380;-81
2023/08/26 09:27:10;;;;;;;;;;;;;;;17.84;85.96;100986.03;5013480;28;1404;-79
2023/08/26 09:29:37;;;;;;;;;;;;;;;17.88;86.13;100992.56;5012269;28;1320;-81
2023/08/26 09:32:03;;;;;;;;;;;;;;;17.96;86.28;100987.31;5022682;28;1159;-80
2023/08/26 09:34:32;;;;;;;;;;;;;;;18.02;85.97;100991.88;5031750;28;1169;-80
2023/08/26 09:36:58;;;;;;;;;;;;;;;18.08;85.29;100986.94;5027376;28;1113;-79
2023/08/26 09:39:23;;;;;;;;;;;;;;;18.11;85.08;100991.84;5025599;28;1150;-80
2023/08/26 09:41:48;;;;;;;;;;;;;;;18.20;84.62;100989.00;5023820;28;1952;-80
2023/08/26 09:44:17;;;;;;;;;;;;;;;18.28;84.72;100982.88;5037164;28;1006;-80
2023/08/26 09:46:43;;;;;;;;;;;;;;;18.39;84.54;100990.38;5021119;28;1449;-79
2023/08/26 09:49:12;;;;;;;;;;;;;;;18.41;83.80;100985.81;5037713;28;1193;-79
2023/08/26 09:51:37;;;;;;;;;;;;;;;18.45;84.08;101000.19;5036460;28;1338;-79
2023/08/26 09:54:03;;;;;;;;;;;;;;;18.51;84.11;101002.13;5031626;28;1097;-79
2023/08/26 09:56:28;;;;;;;;;;;;;;;18.54;83.97;101004.44;5026882;28;1154;-79
2023/08/26 09:58:54;;;;;;;;;;;;;;;18.49;83.28;100998.06;5016111;28;1300;-79
2023/08/26 10:01:20;;;;;;;;;;;;;;;18.47;83.56;101003.50;5019983;28;1898;-79
2023/08/26 10:03:49;;;;;;;;;;;;;;;18.46;83.82;101003.66;5033586;28;1236;-79
2023/08/26 10:06:16;;;;;;;;;;;;;;;18.52;83.74;101009.06;5023218;28;1431;-79
2023/08/26 10:08:41;;;;;;;;;;;;;;;18.66;83.16;101006.66;5025182;28;1661;-79
2023/08/26 10:11:07;;;;;;;;;;;;;;;18.79;82.73;101006.94;5037580;28;1339;-78
2023/08/26 10:13:33;;;;;;;;;;;;;;;18.90;82.05;101003.09;5025363;28;1524;-76
2023/08/26 10:15:59;;;;;;;;;;;;;;;19.00;81.42;101008.94;5031294;28;1165;-78
2023/08/26 10:18:32;;;;;;;;;;;;;;;19.04;81.06;100997.91;5016473;28;1336;-78
2023/08/26 10:21:00;;;;;;;;;;;;;;;19.08;81.02;101006.22;5009452;28;1902;-77
2023/08/26 10:23:25;;;;;;;;;;;;;;;19.05;80.07;101002.16;5031182;28;1061;-77
2023/08/26 10:25:50;;;;;;;;;;;;;;;19.07;80.03;101000.16;5028442;28;1389;-77
2023/08/26 10:28:16;;;;;;;;;;;;;;;19.22;80.15;100991.50;5037422;28;1228;-76
2023/08/26 10:30:42;;;;;;;;;;;;;;;19.37;80.80;100994.97;5028209;28;1216;-77
2023/08/26 10:33:07;;;;;;;;;;;;;;;19.48;79.76;100997.19;5032685;28;1126;-77
2023/08/26 10:35:32;;;;;;;;;;;;;;;19.55;78.55;100998.09;5031724;28;1163;-77
2023/08/26 10:38:11;;;;;;;;;;;;;;;19.51;78.37;100998.66;5018980;28;1209;-77
2023/08/26 10:40:36;;;;;;;;;;;;;;;19.54;78.41;101006.97;5005644;28;1965;-77
2023/08/26 10:43:05;;;;;;;;;;;;;;;19.59;77.61;100994.13;5018930;28;1277;-76
2023/08/26 10:45:30;;;;;;;;;;;;;;;19.58;76.98;100992.50;5030330;28;1046;-77
2023/08/26 10:47:56;;;;;;;;;;;;;;;19.65;77.00;100997.06;5020435;28;1319;-77
2023/08/26 10:50:25;;;;;;;;;;;;;;;19.66;76.69;100998.69;5017442;28;1438;-77
2023/08/26 10:52:53;;;;;;;;;;;;;;;19.69;76.79;100988.63;5036193;28;1035;-76
2023/08/26 10:55:20;;;;;;;;;;;;;;;19.75;76.39;100987.09;5041154;28;1013;-77
2023/08/26 10:58:05;;;;;;;;;;;;;;;19.87;75.72;100990.88;5034825;28;1062;-76
2023/08/26 11:00:30;;;;;;;;;;;;;;;19.90;75.65;100985.28;5033454;28;1012;-78
2023/08/26 11:02:55;;;;;;;;;;;;;;;19.97;75.07;100986.19;5039744;28;1886;-77
2023/08/26 11:05:21;;;;;;;;;;;;;;;19.99;74.67;100978.91;5028852;28;1174;-77
2023/08/26 11:07:46;;;;;;;;;;;;;;;20.07;74.86;100976.19;5031762;28;1041;-77
2023/08/26 11:10:31;;;;;;;;;;;;;;;20.15;74.10;100968.16;5035412;28;1145;-77
2023/08/26 11:12:56;;;;;;;;;;;;;;;20.10;74.22;100980.25;5029439;28;1050;-76
2023/08/26 11:15:22;;;;;;;;;;;;;;;20.08;72.84;100983.06;5032243;28;1161;-76
2023/08/26 11:17:48;;;;;;;;;;;;;;;19.99;72.89;100978.91;5027756;28;1191;-76
2023/08/26 11:20:14;;;;;;;;;;;;;;;19.90;72.58;100974.75;5034865;28;1143;-77
2023/08/26 11:22:39;;;;;;;;;;;;;;;19.91;73.17;100970.28;5025420;28;1965;-78
2023/08/26 11:25:05;;;;;;;;;;;;;;;19.97;72.02;100973.00;5031870;28;1323;-76
2023/08/26 11:27:30;;;;;;;;;;;;;;;20.07;72.58;100964.81;5032712;28;2187;-75
2023/08/26 11:29:55;;;;;;;;;;;;;;;20.15;72.57;100968.16;5029854;28;1102;-77
2023/08/26 11:32:20;;;;;;;;;;;;;;;20.10;72.70;100970.53;5029302;28;1328;-76
2023/08/26 11:34:46;;;;;;;;;;;;;;;20.13;72.74;100959.66;5032016;28;1302;-77
2023/08/26 11:37:12;;;;;;;;;;;;;;;20.23;72.61;100969.06;5030219;28;1475;-77
2023/08/26 11:39:38;;;;;;;;;;;;;;;20.30;72.31;100969.94;5026613;28;1191;-76
2023/08/26 11:42:13;;;;;;;;;;;;;;;20.39;71.18;100971.47;5020576;28;1966;-77
2023/08/26 11:44:38;;;;;;;;;;;;;;;20.44;71.00;100963.84;5011913;28;1213;-76
2023/08/26 11:47:04;;;;;;;;;;;;;;;20.42;70.78;100971.13;5025297;28;1145;-77
2023/08/26 11:49:29;;;;;;;;;;;;;;;20.37;69.98;100973.50;5022644;28;1694;-78
2023/08/26 11:51:54;;;;;;;;;;;;;;;20.39;70.89;100974.09;5023393;28;1103;-77
2023/08/26 11:54:24;;;;;;;;;;;;;;;20.47;70.92;100966.09;5024804;28;1141;-77
2023/08/26 11:56:49;;;;;;;;;;;;;;;20.57;70.49;100966.63;5020010;28;1307;-77
2023/08/26 11:59:17;;;;;;;;;;;;;;;20.56;69.63;100980.81;5030169;28;1072;-77
2023/08/26 12:01:43;;;;;;;;;;;;;;;20.52;68.21;100978.72;5034537;28;1902;-78
2023/08/26 12:04:11;;;;;;;;;;;;;;;20.45;70.18;100978.63;5042858;28;1376;-76
2023/08/26 12:06:36;;;;;;;;;;;;;;;20.43;70.43;100978.00;5031594;28;1306;-79
2023/08/26 12:09:04;;;;;;;;;;;;;;;20.42;69.91;100979.03;5030793;28;1195;-78
2023/08/26 12:11:32;;;;;;;;;;;;;;;20.51;70.05;100962.09;5041047;28;1201;-80
2023/08/26 12:13:57;;;;;;;;;;;;;;;20.67;70.00;100964.50;5032096;28;1283;-79
2023/08/26 12:16:23;;;;;;;;;;;;;;;20.86;69.46;100962.25;5018030;28;1204;-79
2023/08/26 12:18:52;;;;;;;;;;;;;;;20.94;68.13;100967.41;5031844;28;1175;-79
2023/08/26 12:21:17;;;;;;;;;;;;;;;20.97;67.98;100976.75;5030263;28;1930;-81
2023/08/26 12:23:42;;;;;;;;;;;;;;;21.08;68.59;100963.84;5030358;28;1201;-78
2023/08/26 12:26:14;;;;;;;;;;;;;;;21.19;67.86;100965.16;5023988;28;1212;-79
2023/08/26 12:28:39;;;;;;;;;;;;;;;21.08;66.77;100963.03;5029178;28;1177;-79
2023/08/26 12:31:05;;;;;;;;;;;;;;;20.96;68.00;100960.09;5050212;23;1661;-79
2023/08/26 12:33:30;;;;;;;;;;;;;;;20.98;67.63;100962.53;5032318;28;1501;-79
2023/08/26 12:35:55;;;;;;;;;;;;;;;21.00;67.91;100956.09;5050670;28;1169;-81